• Join FlightAware (Why Join?)
  • Login
  • US Flag 
01:28AM EDT


 

Airport Tracker/Info


-or-


 

Live Flight TrackerFlight Track Log ✈ ASQ4252 ✈ 11-Jun-2013 ✈ KPWM - KIAD

Flight Track Log - Related Links

Times and Time Zones

All times are in EDT time to prevent confusion due to time zone crossing. See the ASQ4252 flight status page for this flight to view local times or setup timezone preferences in your user account.

Time Position Orientation Groundspeed Altitude Reporting Facility
EDT Latitude Longitude Course Direction KTS MPH feet Rate Location/Type
06:01AM 43.6547 -70.2447 232° Southwest 183 211 2,300  Level Boston Center
06:02AM 43.6658 -70.1725 78° East 207 238 4,700 2,100 Climbing Boston Center
06:03AM 43.4833 -70.2301 229° Southwest  Level FlightAware Approximate
06:03AM 43.6250 -70.1111 133° Southeast 178 205 7,400  Level Boston Center
06:04AM 43.4269 -70.3295 235° Southwest  Level FlightAware Approximate
06:04AM 43.5669 -70.1306 194° South 166 191 9,000  Level Boston Center
06:05AM 43.3650 -70.4224 226° Southwest  Level FlightAware Approximate
06:05AM 43.5267 -70.1922 228° Southwest 211 243 10,700  Level Boston Center
06:06AM 43.3046 -70.5171 232° Southwest  Level FlightAware Approximate
06:06AM 43.4739 -70.2742 228° Southwest 262 302 12,500  Level Boston Center
06:07AM 43.4253 -70.3503 229° Southwest 270 311 14,100 1,740 Climbing Boston Center
06:08AM 43.3747 -70.4319 230° Southwest 276 318 16,000 1,620 Climbing Boston Center
06:09AM 43.3303 -70.5050 230° Southwest 276 318 17,400 1,500 Climbing Boston Center
06:10AM 43.2733 -70.5894 227° Southwest 276 318 19,000 1,440 Climbing Boston Center
06:11AM 43.2200 -70.6508 220° Southwest 276 318 20,300 1,320 Climbing Boston Center
06:12AM 43.1586 -70.7208 220° Southwest 282 325 21,700 1,320 Climbing Boston Center
06:13AM 43.0864 -70.7742 208° Southwest 295 339 23,000 1,200 Climbing Boston Center
06:14AM 43.0142 -70.8272 208° Southwest 295 339 24,100 1,020 Climbing Boston Center
06:15AM 42.9400 -70.8886 211° Southwest 300 345 25,100 1,020 Climbing Boston Center
06:16AM 42.8872 -70.9836 233° Southwest 307 353 26,200 1,020 Climbing Boston Center
06:17AM 42.8319 -71.0839 233° Southwest 318 366 27,200 960 Climbing Boston Center
06:18AM 42.7811 -71.1783 234° Southwest 324 373 28,200 1,020 Climbing Boston Center
06:19AM 42.7300 -71.2811 236° Southwest 329 379 29,300 1,020 Climbing Boston Center
06:20AM 42.6747 -71.3811 233° Southwest 334 384 30,300 960 Climbing Boston Center
06:21AM 42.6194 -71.4836 234° Southwest 339 390 31,300 1,020 Climbing Boston Center
06:22AM 42.5556 -71.5917 231° Southwest 339 390 32,400 1,080 Climbing Boston Center
06:23AM 42.5000 -71.6939 234° Southwest 339 390 33,500 1,020 Climbing Boston Center
06:24AM 42.4464 -71.7931 234° Southwest 339 390 34,500 960 Climbing Boston Center
06:25AM 42.3928 -71.8892 233° Southwest 339 390 35,500 720 Climbing Boston Center
06:26AM 42.3392 -71.9878 234° Southwest 339 390 36,000 240 Climbing Boston Center
06:27AM 42.2789 -72.0922 232° Southwest 339 390 36,000  Level Boston Center
06:28AM 42.2208 -72.2047 235° Southwest 352 405 36,000  Level Boston Center
06:29AM 42.1564 -72.3197 233° Southwest 368 423 36,000  Level Boston Center
06:30AM 42.0919 -72.4317 232° Southwest 380 437 36,000  Level Boston Center
06:31AM 42.0294 -72.5492 234° Southwest 391 450 36,000  Level Boston Center
06:32AM 41.9689 -72.6606 234° Southwest 383 441 36,000  Level Boston Center
06:33AM 41.9039 -72.7719 232° Southwest 383 441 36,000  Level Boston Center
06:34AM 41.8411 -72.8858 234° Southwest 383 441 36,000  Level Boston Center
06:36AM 41.7067 -73.1192 232° Southwest 395 455 36,000  Level New York Center
06:37AM 41.6442 -73.2281 232° Southwest 389 448 36,000  Level New York Center
06:38AM 41.5856 -73.3394 235° Southwest 378 435 36,000  Level New York Center
06:39AM 41.5228 -73.4450 232° Southwest 373 429 36,000  Level New York Center
06:40AM 41.4600 -73.5561 233° Southwest 373 429 36,000  Level New York Center
06:41AM 41.3969 -73.6669 233° Southwest 378 435 36,000  Level New York Center
06:42AM 41.3336 -73.7772 233° Southwest 378 435 36,000  Level New York Center
06:43AM 41.2706 -73.8850 232° Southwest 378 435 36,000 -60 Level New York Center
06:44AM 41.2072 -73.9922 232° Southwest 378 435 35,900 -600 Descending New York Center
06:45AM 41.1439 -74.1022 233° Southwest 378 435 34,900 -1,020 Descending New York Center
06:46AM 41.0822 -74.2119 233° Southwest 378 435 33,900 -1,020 Descending New York Center
06:47AM 41.0308 -74.3275 240° Southwest 378 435 32,900 -1,020 Descending New York Center
06:48AM 40.9775 -74.4431 239° Southwest 373 429 31,900 -1,020 Descending New York Center
06:49AM 40.9197 -74.5578 236° Southwest 373 429 30,900 -1,020 Descending New York Center
06:50AM 40.8739 -74.6844 244° Southwest 373 429 29,900 -1,020 Descending New York Center
06:51AM 40.8361 -74.8139 249° West 378 435 28,900 -960 Descending New York Center
06:52AM 40.7861 -74.9314 241° Southwest 378 435 28,000 -480 Descending New York Center
06:53AM 40.7300 -75.0458 237° Southwest 373 429 28,000  Level New York Center
06:54AM 40.6733 -75.1681 239° Southwest 378 435 28,000 -300 Level New York Center
06:55AM 40.6217 -75.2742 237° Southwest 383 441 27,500 -1,080 Descending New York Center
06:56AM 40.5628 -75.3958 238° Southwest 393 452 25,900 -1,980 Descending New York Center
06:57AM 40.5036 -75.5175 237° Southwest 393 452 23,600 -2,220 Descending New York Center
06:58AM 40.4469 -75.6336 237° Southwest 393 452 21,600 -1,800 Descending New York Center
06:59AM 40.3919 -75.7469 238° Southwest 393 452 20,000 -840 Descending New York Center
07:00AM 40.3350 -75.8628 237° Southwest 393 452 20,000  Level New York Center
07:01AM 40.2667 -75.9936 236° Southwest 393 452 20,000  Level New York Center
07:02AM 40.2094 -76.1117 238° Southwest 388 447 20,000 -60 Level New York Center
07:03AM 40.1608 -76.2139 238° Southwest 383 441 19,900 -720 Descending New York Center
07:04AM 40.0967 -76.3419 237° Southwest 383 441 18,600 -1,440 Descending New York Center
07:05AM 40.0481 -76.4439 238° Southwest 372 428 17,100 -1,500 Descending New York Center
07:06AM 39.9989 -76.5508 239° Southwest 360 414 15,700 -720 Descending New York Center
07:08AM 39.9000 -76.7667 239° Southwest 311 358 15,000 -240 Descending Potomac TRACON
07:09AM 39.8500 -76.8667 237° Southwest 309 356 15,000 -60 Level Potomac TRACON
07:10AM 39.8167 -76.9500 243° Southwest 311 358 14,900 -720 Descending Potomac TRACON
07:11AM 39.7667 -77.0333 232° Southwest 311 358 13,700 -1,440 Descending Potomac TRACON
07:12AM 39.7333 -77.1167 243° Southwest 306 352 12,200 -1,620 Descending Potomac TRACON
07:13AM 39.6833 -77.2167 237° Southwest 300 345 10,700 -1,200 Descending Potomac TRACON
07:14AM 39.6500 -77.3000 243° Southwest 298 343 10,000 -720 Descending Potomac TRACON
07:15AM 39.5833 -77.3833 224° Southwest 279 321 9,300 -1,080 Descending Potomac TRACON
07:16AM 39.5167 -77.4167 201° Southwest 262 302 7,900 -1,260 Descending Potomac TRACON
07:17AM 39.4667 -77.4500 207° Southwest 262 302 7,000 -480 Descending Potomac TRACON
07:18AM 39.3833 -77.4500 180° South 269 310 7,000 -180 Level Potomac TRACON
07:19AM 39.3333 -77.4500 180° South 272 313 6,700 -720 Descending Potomac TRACON
07:20AM 39.2500 -77.4500 180° South 268 308 5,700 -1,320 Descending Potomac TRACON
07:21AM 39.1667 -77.4500 180° South 267 307 4,100 -1,440 Descending Potomac TRACON
07:22AM 39.1000 -77.4500 180° South 258 297 2,800 -1,320 Descending Potomac TRACON